createdAt,value
2023-01-08T00:01:59.787Z,100512.63
2023-01-08T00:04:02.310Z,100512.59
2023-01-08T00:06:05.974Z,100509.81
2023-01-08T00:08:09.544Z,100505.41
2023-01-08T00:10:11.005Z,100512.47
2023-01-08T00:12:12.432Z,100504.50
2023-01-08T00:14:13.874Z,100503.66
2023-01-08T00:16:17.987Z,100508.06
2023-01-08T00:18:19.791Z,100508.81
2023-01-08T00:20:21.445Z,100506.16
2023-01-08T00:22:22.914Z,100507.88
2023-01-08T00:24:24.459Z,100519.28
2023-01-08T00:26:25.907Z,100504.41
2023-01-08T00:28:27.349Z,100500.97
2023-01-08T00:30:29.211Z,100500.06
2023-01-08T00:32:30.670Z,100497.44
2023-01-08T00:34:32.160Z,100495.63
2023-01-08T00:36:33.629Z,100498.13
2023-01-08T00:38:35.089Z,100501.56
2023-01-08T00:40:37.289Z,100506.84
2023-01-08T00:42:38.761Z,100507.69
2023-01-08T00:44:40.249Z,100497.19
2023-01-08T00:46:41.698Z,100504.25
2023-01-08T00:48:43.136Z,100502.44
2023-01-08T00:50:44.586Z,100495.38
2023-01-08T00:52:46.053Z,100498.06
2023-01-08T00:54:47.491Z,100500.69
2023-01-08T00:56:48.975Z,100498.97
2023-01-08T00:58:50.394Z,100496.34
2023-01-08T01:00:51.916Z,100495.44
2023-01-08T01:02:53.391Z,100497.97
2023-01-08T01:04:54.868Z,100490.88
2023-01-08T01:06:56.320Z,100497.88
2023-01-08T01:08:57.792Z,100478.56
2023-01-08T01:10:59.299Z,100478.56
2023-01-08T01:13:00.785Z,100483.00
2023-01-08T01:15:02.344Z,100473.31
2023-01-08T01:17:04.726Z,100469.00
2023-01-08T01:19:06.236Z,100471.72
2023-01-08T01:21:22.195Z,100470.94
2023-01-08T01:23:23.664Z,100473.63
2023-01-08T01:25:25.101Z,100472.75
2023-01-08T01:27:26.879Z,100471.00
2023-01-08T01:29:28.402Z,100471.00
2023-01-08T01:31:31.571Z,100466.63
2023-01-08T01:33:33.092Z,100472.72
2023-01-08T01:35:34.546Z,100468.34
2023-01-08T01:37:36.159Z,100465.72
2023-01-08T01:39:37.631Z,100463.09
2023-01-08T01:41:44.670Z,100463.03
2023-01-08T01:43:46.106Z,100461.28
2023-01-08T01:45:47.667Z,100460.38
2023-01-08T01:48:05.853Z,100456.91
2023-01-08T01:50:07.425Z,100462.28
2023-01-08T01:52:09.778Z,100454.38
2023-01-08T01:54:13.132Z,100450.00
2023-01-08T01:56:15.135Z,100456.97
2023-01-08T01:58:21.414Z,100460.44
2023-01-08T02:00:23.285Z,100463.91
2023-01-08T02:02:24.896Z,100454.19
2023-01-08T02:04:26.506Z,100459.41
2023-01-08T02:06:36.652Z,100461.09
2023-01-08T02:08:57.262Z,100455.69
2023-01-08T02:11:11.525Z,100455.59
2023-01-08T02:13:17.643Z,100455.53
2023-01-08T02:15:37.458Z,100463.38
2023-01-08T02:18:06.905Z,100457.13
2023-01-08T02:20:11.627Z,100451.84
2023-01-08T02:22:36.679Z,100445.66
2023-01-08T02:24:50.214Z,100440.34
2023-01-08T02:26:53.751Z,100440.28
2023-01-08T02:29:07.533Z,100444.66
2023-01-08T02:31:09.331Z,100441.16
2023-01-08T02:33:11.897Z,100442.03
2023-01-08T02:35:13.451Z,100434.06
2023-01-08T02:37:14.965Z,100431.47
2023-01-08T02:39:50.285Z,100431.47
2023-01-08T02:42:06.811Z,100432.38
2023-01-08T02:44:12.456Z,100425.34
2023-01-08T02:46:27.961Z,100426.19
2023-01-08T02:48:35.327Z,100441.97
2023-01-08T02:50:53.352Z,100439.28
2023-01-08T02:53:13.004Z,100434.81
2023-01-08T02:55:16.820Z,100437.41
2023-01-08T02:57:20.035Z,100425.09
2023-01-08T02:59:23.660Z,100428.53
2023-01-08T03:01:27.313Z,100429.47
2023-01-08T03:03:31.000Z,100418.91
2023-01-08T03:05:33.573Z,100435.59
2023-01-08T03:07:35.914Z,100433.91
2023-01-08T03:09:37.506Z,100428.69
2023-01-08T03:11:49.811Z,100435.78
2023-01-08T03:14:20.271Z,100434.91
2023-01-08T03:16:29.286Z,100441.19
2023-01-08T03:18:39.878Z,100434.16
2023-01-08T03:20:42.103Z,100435.97
2023-01-08T03:22:47.762Z,100434.16
2023-01-08T03:24:52.714Z,100431.53
2023-01-08T03:26:58.398Z,100425.44
2023-01-08T03:29:01.403Z,100423.66
2023-01-08T03:31:03.380Z,100428.03
2023-01-08T03:33:07.133Z,100427.13
2023-01-08T03:35:11.643Z,100429.75
2023-01-08T03:37:15.769Z,100433.25
2023-01-08T03:39:22.760Z,100431.47
2023-01-08T03:41:27.795Z,100424.47
2023-01-08T03:43:29.829Z,100425.38
2023-01-08T03:45:32.956Z,100419.19
2023-01-08T03:47:37.414Z,100402.56
2023-01-08T03:49:41.736Z,100409.63
2023-01-08T03:51:45.742Z,100405.31
2023-01-08T03:53:49.322Z,100412.41
2023-01-08T03:55:50.826Z,100410.72
2023-01-08T03:57:52.314Z,100412.50
2023-01-08T03:59:53.775Z,100401.97
2023-01-08T04:01:55.409Z,100403.78
2023-01-08T04:03:57.004Z,100400.28
2023-01-08T04:06:01.596Z,100400.38
2023-01-08T04:08:03.059Z,100396.94
2023-01-08T04:10:05.011Z,100386.44
2023-01-08T04:12:06.622Z,100387.41
2023-01-08T04:14:08.177Z,100388.31
2023-01-08T04:16:09.766Z,100384.00
2023-01-08T04:18:11.212Z,100391.09
2023-01-08T04:20:12.705Z,100382.31
2023-01-08T04:22:14.177Z,100382.41
2023-01-08T04:24:15.667Z,100384.19
2023-01-08T04:26:17.120Z,100377.97
2023-01-08T04:28:19.346Z,100381.50
2023-01-08T04:30:20.805Z,100376.25
2023-01-08T04:32:22.252Z,100379.78
2023-01-08T04:34:23.697Z,100367.53
2023-01-08T04:36:25.429Z,100373.69
2023-01-08T04:38:27.133Z,100377.28
2023-01-08T04:40:28.733Z,100369.44
2023-01-08T04:42:30.163Z,100372.03
2023-01-08T04:44:31.635Z,100369.44
2023-01-08T04:46:33.118Z,100379.13
2023-01-08T04:48:35.374Z,100376.47
2023-01-08T04:50:36.814Z,100374.72
2023-01-08T04:52:38.273Z,100364.16
2023-01-08T04:54:39.767Z,100357.19
2023-01-08T04:56:41.213Z,100362.41
2023-01-08T04:58:42.675Z,100356.25
2023-01-08T05:00:44.135Z,100364.22
2023-01-08T05:02:45.743Z,100364.25
2023-01-08T05:04:48.291Z,100359.91
2023-01-08T05:06:49.733Z,100361.72
2023-01-08T05:08:51.237Z,100360.00
2023-01-08T05:10:52.679Z,100361.78
2023-01-08T05:13:01.389Z,100358.31
2023-01-08T05:15:02.862Z,100357.50
2023-01-08T05:17:04.343Z,100348.75
2023-01-08T05:19:05.882Z,100344.44
2023-01-08T05:21:07.378Z,100348.84
2023-01-08T05:23:08.809Z,100340.97
2023-01-08T05:25:10.286Z,100340.13
2023-01-08T05:27:11.752Z,100335.72
2023-01-08T05:29:13.367Z,100327.88
2023-01-08T05:31:16.864Z,100336.69
2023-01-08T05:33:18.775Z,100341.13
2023-01-08T05:35:20.210Z,100344.72
2023-01-08T05:37:21.865Z,100338.63
2023-01-08T05:39:23.321Z,100341.28
2023-01-08T05:41:24.908Z,100351.81
2023-01-08T05:43:26.692Z,100350.09
2023-01-08T05:45:28.429Z,100342.19
2023-01-08T05:47:31.501Z,100333.38
2023-01-08T05:49:32.957Z,100345.63
2023-01-08T05:51:34.417Z,100339.50
2023-01-08T05:53:35.996Z,100330.69
2023-01-08T05:55:37.476Z,100331.56
2023-01-08T05:57:38.983Z,100326.19
2023-01-08T05:59:40.480Z,100329.66
2023-01-08T06:01:42.020Z,100322.63
2023-01-08T06:03:43.563Z,100323.47
2023-01-08T06:05:45.031Z,100323.47
2023-01-08T06:07:46.480Z,100320.84
2023-01-08T06:09:47.914Z,100319.06
2023-01-08T06:11:49.397Z,100314.66
2023-01-08T06:13:50.951Z,100320.78
2023-01-08T06:15:52.562Z,100311.09
2023-01-08T06:17:54.031Z,100306.69
2023-01-08T06:19:55.534Z,100305.78
2023-01-08T06:21:57.074Z,100297.91
2023-01-08T06:23:58.504Z,100310.16
2023-01-08T06:26:01.355Z,100304.94
2023-01-08T06:28:03.956Z,100310.16
2023-01-08T06:30:06.055Z,100301.38
2023-01-08T06:32:07.499Z,100305.75
2023-01-08T06:34:09.001Z,100300.47
2023-01-08T06:36:10.808Z,100299.63
2023-01-08T06:38:12.254Z,100303.16
2023-01-08T06:40:13.823Z,100304.97
2023-01-08T06:42:15.335Z,100299.72
2023-01-08T06:44:16.868Z,100298.00
2023-01-08T06:46:18.429Z,100290.16
2023-01-08T06:48:19.989Z,100288.44
2023-01-08T06:50:21.591Z,100296.38
2023-01-08T06:52:23.045Z,100298.19
2023-01-08T06:54:24.538Z,100292.94
2023-01-08T06:56:26.051Z,100290.34
2023-01-08T06:58:28.566Z,100292.06
2023-01-08T07:00:30.161Z,100296.47
2023-01-08T07:02:31.876Z,100292.97
2023-01-08T07:04:33.491Z,100290.38
2023-01-08T07:06:34.936Z,100292.97
2023-01-08T07:08:36.371Z,100300.81
2023-01-08T07:10:37.852Z,100289.44
2023-01-08T07:12:39.352Z,100280.56
2023-01-08T07:14:41.296Z,100284.03
2023-01-08T07:16:42.733Z,100291.97
2023-01-08T07:18:44.845Z,100285.78
2023-01-08T07:20:48.424Z,100289.34
2023-01-08T07:22:49.862Z,100298.97
2023-01-08T07:24:52.251Z,100297.19
2023-01-08T07:26:53.732Z,100298.06
2023-01-08T07:28:55.180Z,100296.22
2023-01-08T07:30:57.389Z,100303.16
2023-01-08T07:33:00.571Z,100302.16
2023-01-08T07:35:02.033Z,100302.16
2023-01-08T07:37:04.194Z,100300.44
2023-01-08T07:39:05.633Z,100309.16
2023-01-08T07:41:07.164Z,100310.91
2023-01-08T07:43:09.147Z,100312.59
2023-01-08T07:45:11.016Z,100306.56
2023-01-08T07:47:12.469Z,100307.41
2023-01-08T07:49:13.953Z,100306.66
2023-01-08T07:51:15.403Z,100307.56
2023-01-08T07:53:17.804Z,100304.97
2023-01-08T07:55:19.340Z,100301.50
2023-01-08T07:57:20.853Z,100299.78
2023-01-08T07:59:22.399Z,100306.84
2023-01-08T08:01:26.137Z,100306.00
2023-01-08T08:03:27.889Z,100312.22
2023-01-08T08:05:29.421Z,100307.81
2023-01-08T08:07:31.487Z,100312.22
2023-01-08T08:09:33.097Z,100307.91
2023-01-08T08:11:34.687Z,100313.22
2023-01-08T08:13:36.387Z,100314.94
2023-01-08T08:15:38.757Z,100309.63
2023-01-08T08:17:40.238Z,100312.22
2023-01-08T08:19:43.941Z,100316.56
2023-01-08T08:21:45.538Z,100313.94
2023-01-08T08:23:46.978Z,100307.81
2023-01-08T08:25:48.479Z,100308.69
2023-01-08T08:27:50.053Z,100312.19
2023-01-08T08:29:51.472Z,100296.38
2023-01-08T08:31:52.912Z,100292.88
2023-01-08T08:33:54.429Z,100300.81
2023-01-08T08:35:55.882Z,100298.16
2023-01-08T08:37:58.171Z,100299.00
2023-01-08T08:39:59.651Z,100291.97
2023-01-08T08:42:01.090Z,100298.09
2023-01-08T08:44:02.533Z,100290.16
2023-01-08T08:46:04.091Z,100288.34
2023-01-08T08:48:07.044Z,100290.97
2023-01-08T08:50:08.813Z,100290.03
2023-01-08T08:52:10.295Z,100298.81
2023-01-08T08:54:11.914Z,100296.16
2023-01-08T08:56:13.475Z,100303.13
2023-01-08T08:58:14.996Z,100292.56
2023-01-08T09:00:16.768Z,100292.44
2023-01-08T09:02:18.353Z,100285.28
2023-01-08T09:04:19.875Z,100278.25
2023-01-08T09:06:21.373Z,100286.06
2023-01-08T09:08:22.832Z,100292.19
2023-01-08T09:10:24.381Z,100293.00
2023-01-08T09:12:25.923Z,100284.25
2023-01-08T09:14:27.379Z,100288.66
2023-01-08T09:16:28.894Z,100290.41
2023-01-08T09:18:30.352Z,100279.06
2023-01-08T09:20:32.117Z,100284.38
2023-01-08T09:22:33.684Z,100293.19
2023-01-08T09:24:35.158Z,100277.44
2023-01-08T09:26:36.742Z,100275.66
2023-01-08T09:28:39.147Z,100279.22
2023-01-08T09:30:40.662Z,100282.81
2023-01-08T09:32:42.132Z,100289.81
2023-01-08T09:34:43.615Z,100298.50
2023-01-08T09:36:45.060Z,100289.75
2023-01-08T09:38:46.829Z,100287.06
2023-01-08T09:40:48.257Z,100293.16
2023-01-08T09:42:57.696Z,100290.50
2023-01-08T09:45:01.874Z,100287.06
2023-01-08T09:47:04.456Z,100295.88
2023-01-08T09:49:12.717Z,100292.38
2023-01-08T09:51:17.473Z,100296.78
2023-01-08T09:53:19.253Z,100289.91
2023-01-08T09:55:21.095Z,100295.22
2023-01-08T09:57:22.887Z,100296.97
2023-01-08T09:59:24.415Z,100295.16
2023-01-08T10:01:33.749Z,100292.47
2023-01-08T10:03:49.284Z,100287.16
2023-01-08T10:05:52.005Z,100281.84
2023-01-08T10:07:53.575Z,100268.59
2023-01-08T10:09:56.140Z,100269.34
2023-01-08T10:12:03.348Z,100267.56
2023-01-08T10:14:17.157Z,100275.47
2023-01-08T10:16:28.557Z,100276.34
2023-01-08T10:18:30.364Z,100270.31
2023-01-08T10:20:33.132Z,100280.88
2023-01-08T10:22:34.797Z,100288.75
2023-01-08T10:24:39.654Z,100277.25
2023-01-08T10:26:41.301Z,100284.13
2023-01-08T10:28:42.755Z,100275.22
2023-01-08T10:30:44.443Z,100270.78
2023-01-08T10:32:54.501Z,100275.94
2023-01-08T10:34:57.731Z,100270.56
2023-01-08T10:36:59.488Z,100278.38
2023-01-08T10:39:04.365Z,100260.03
2023-01-08T10:41:11.968Z,100262.56
2023-01-08T10:43:28.820Z,100260.84
2023-01-08T10:45:30.564Z,100251.97
2023-01-08T10:47:35.893Z,100258.78
2023-01-08T10:49:43.813Z,100256.75
2023-01-08T10:51:50.694Z,100253.91
2023-01-08T10:53:54.023Z,100257.19
2023-01-08T10:56:03.984Z,100239.44
2023-01-08T10:58:08.520Z,100249.78
2023-01-08T11:00:31.695Z,100246.94
2023-01-08T11:02:38.670Z,100245.06
2023-01-08T11:04:41.941Z,100244.81
2023-01-08T11:06:45.346Z,100249.50
2023-01-08T11:08:51.894Z,100240.66
2023-01-08T11:10:59.784Z,100233.13
2023-01-08T11:13:04.558Z,100239.50
2023-01-08T11:15:23.677Z,100234.78
2023-01-08T11:17:26.332Z,100228.94
2023-01-08T11:19:30.401Z,100224.78
2023-01-08T11:21:33.512Z,100228.63
2023-01-08T11:23:35.037Z,100220.88
2023-01-08T11:25:37.701Z,100225.63
2023-01-08T11:27:44.087Z,100213.97
2023-01-08T11:29:51.996Z,100213.41
2023-01-08T11:32:08.587Z,100212.69
2023-01-08T11:34:22.431Z,100215.16
2023-01-08T11:36:38.738Z,100214.91
2023-01-08T11:38:40.203Z,100211.81
2023-01-08T11:40:52.064Z,100213.34
2023-01-08T11:43:03.629Z,100212.34
2023-01-08T11:45:23.942Z,100213.94
2023-01-08T11:47:28.403Z,100203.25
2023-01-08T11:49:55.944Z,100203.50
2023-01-08T11:52:23.805Z,100196.53
2023-01-08T11:54:37.414Z,100197.50
2023-01-08T11:56:56.420Z,100188.03
2023-01-08T11:59:03.904Z,100190.50
2023-01-08T12:01:23.074Z,100182.81
2023-01-08T12:03:36.610Z,100195.19
2023-01-08T12:05:46.531Z,100178.16
2023-01-08T12:08:05.570Z,100176.63
2023-01-08T12:10:27.958Z,100181.34
2023-01-08T12:12:45.656Z,100188.75
2023-01-08T12:15:32.035Z,100174.22
2023-01-08T12:17:51.519Z,100173.44
2023-01-08T12:20:34.968Z,100172.91
2023-01-08T12:22:47.291Z,100170.38
2023-01-08T12:24:54.640Z,100164.97
2023-01-08T12:27:05.243Z,100162.25
2023-01-08T12:29:41.953Z,100162.66
2023-01-08T12:32:01.536Z,100162.28
2023-01-08T12:34:15.862Z,100158.31
2023-01-08T12:36:48.169Z,100150.78
2023-01-08T12:38:56.199Z,100144.84
2023-01-08T12:41:06.168Z,100151.34
2023-01-08T12:43:14.890Z,100150.41
2023-01-08T12:45:20.547Z,100154.09
2023-01-08T12:47:27.953Z,100146.81
2023-01-08T12:49:43.121Z,100148.59
2023-01-08T12:52:02.809Z,100142.56
2023-01-08T12:54:23.231Z,100144.53
2023-01-08T12:56:43.351Z,100140.09
2023-01-08T12:59:18.858Z,100140.03
2023-01-08T13:01:42.533Z,100142.41
2023-01-08T13:03:45.329Z,100136.50
2023-01-08T13:05:46.842Z,100131.16
2023-01-08T13:07:54.341Z,100129.63
2023-01-08T13:10:05.758Z,100126.53
2023-01-08T13:12:07.396Z,100124.19
2023-01-08T13:14:12.036Z,100114.88
2023-01-08T13:16:19.434Z,100113.22
2023-01-08T13:18:21.608Z,100113.47
2023-01-08T13:20:28.566Z,100110.16
2023-01-08T13:22:32.599Z,100108.56
2023-01-08T13:24:37.742Z,100103.03
2023-01-08T13:26:39.200Z,100111.56
2023-01-08T13:28:45.186Z,100106.56
2023-01-08T13:30:49.108Z,100103.53
2023-01-08T13:32:50.593Z,100094.34
2023-01-08T13:35:17.112Z,100098.38
2023-01-08T13:37:27.946Z,100087.59
2023-01-08T13:39:39.134Z,100084.91
2023-01-08T13:41:44.321Z,100077.81
2023-01-08T13:43:46.722Z,100065.81
2023-01-08T13:45:54.476Z,100064.50
2023-01-08T13:47:57.026Z,100063.97
2023-01-08T13:50:01.192Z,100059.78
2023-01-08T13:52:03.031Z,100057.28
2023-01-08T13:54:15.751Z,100063.69
2023-01-08T13:56:18.135Z,100063.16
2023-01-08T13:58:25.443Z,100059.66
2023-01-08T14:00:39.141Z,100061.56
2023-01-08T14:02:50.477Z,100057.47
2023-01-08T14:04:53.163Z,100052.66
2023-01-08T14:07:12.749Z,100053.13
2023-01-08T14:09:25.324Z,100054.44
2023-01-08T14:11:37.941Z,100053.75
2023-01-08T14:13:39.445Z,100054.00
2023-01-08T14:15:41.029Z,100043.78
2023-01-08T14:17:44.012Z,100040.56
2023-01-08T14:19:46.272Z,100042.44
2023-01-08T14:21:55.887Z,100039.00
2023-01-08T14:23:57.806Z,100037.59
2023-01-08T14:26:06.371Z,100041.25
2023-01-08T14:28:17.508Z,100043.22
2023-01-08T14:30:19.480Z,100032.72
2023-01-08T14:32:26.630Z,100037.00
2023-01-08T14:34:30.945Z,100031.97
2023-01-08T14:36:32.577Z,100038.28
2023-01-08T14:38:34.130Z,100032.28
2023-01-08T14:40:43.780Z,100034.06
2023-01-08T14:42:53.462Z,100032.38
2023-01-08T14:45:11.017Z,100029.78
2023-01-08T14:47:18.666Z,100028.06
2023-01-08T14:49:23.175Z,100031.63
2023-01-08T14:51:27.964Z,100025.50
2023-01-08T14:53:36.605Z,100022.81
2023-01-08T14:55:44.352Z,100018.38
2023-01-08T14:57:48.625Z,100022.91
2023-01-08T14:59:56.809Z,100022.06
2023-01-08T15:02:01.697Z,100019.47
2023-01-08T15:04:20.644Z,100015.06
2023-01-08T15:06:29.923Z,100023.97
2023-01-08T15:08:39.969Z,100016.97
2023-01-08T15:10:42.195Z,100017.94
2023-01-08T15:12:43.678Z,100012.72
2023-01-08T15:14:45.159Z,100013.72
2023-01-08T15:16:47.672Z,100009.41
2023-01-08T15:19:02.034Z,100003.34
2023-01-08T15:21:03.797Z,99999.91
2023-01-08T15:23:05.503Z,100005.28
2023-01-08T15:25:07.817Z,99998.38
2023-01-08T15:27:18.963Z,100003.69
2023-01-08T15:29:37.196Z,100007.31
2023-01-08T15:31:41.662Z,100009.31
2023-01-08T15:33:44.742Z,100005.31
2023-01-08T15:35:47.110Z,100001.09
2023-01-08T15:37:48.560Z,100006.47
2023-01-08T15:39:50.084Z,100004.75
2023-01-08T15:42:09.829Z,100001.38
2023-01-08T15:44:15.256Z,100006.06
2023-01-08T15:46:16.831Z,100006.44
2023-01-08T15:48:18.334Z,99996.91
2023-01-08T15:50:20.490Z,99992.56
2023-01-08T15:52:29.558Z,100001.59
2023-01-08T15:54:31.036Z,99994.72
2023-01-08T15:56:32.517Z,99996.59
2023-01-08T15:58:34.028Z,99990.53
2023-01-08T16:00:35.530Z,100000.34
2023-01-08T16:02:53.300Z,99982.78
2023-01-08T16:04:57.396Z,99982.78
2023-01-08T16:06:58.856Z,99991.66
2023-01-08T16:09:00.765Z,99983.22
2023-01-08T16:11:02.476Z,99987.72
2023-01-08T16:13:03.978Z,99986.19
2023-01-08T16:15:09.014Z,99981.94
2023-01-08T16:17:10.459Z,99973.13
2023-01-08T16:19:11.935Z,99974.00
2023-01-08T16:21:13.703Z,99975.81
2023-01-08T16:23:15.251Z,99966.41
2023-01-08T16:25:16.805Z,99977.09
2023-01-08T16:27:18.292Z,99969.41
2023-01-08T16:29:19.930Z,99975.59
2023-01-08T16:31:21.500Z,99971.34
2023-01-08T16:33:23.067Z,99977.63
2023-01-08T16:35:24.600Z,99974.25
2023-01-08T16:37:26.351Z,99981.31
2023-01-08T16:39:28.080Z,99972.75
2023-01-08T16:41:29.674Z,99976.31
2023-01-08T16:43:39.632Z,99977.34
2023-01-08T16:45:46.091Z,99981.94
2023-01-08T16:47:47.596Z,99982.84
2023-01-08T16:49:50.393Z,99977.78
2023-01-08T16:51:51.905Z,99979.66
2023-01-08T16:53:53.475Z,99986.75
2023-01-08T16:55:54.920Z,99979.94
2023-01-08T16:57:56.380Z,99974.88
2023-01-08T16:59:57.828Z,99983.63
2023-01-08T17:01:59.902Z,99978.50
2023-01-08T17:04:01.658Z,99977.75
2023-01-08T17:06:05.397Z,99977.03
2023-01-08T17:08:08.255Z,99978.88
2023-01-08T17:10:10.246Z,99972.06
2023-01-08T17:12:11.720Z,99975.69
2023-01-08T17:14:13.717Z,99977.50
2023-01-08T17:16:17.793Z,99982.69
2023-01-08T17:18:19.905Z,99974.88
2023-01-08T17:20:21.595Z,99977.63
2023-01-08T17:22:23.161Z,99969.75
2023-01-08T17:24:24.610Z,99970.66
2023-01-08T17:26:26.090Z,99963.88
2023-01-08T17:28:29.055Z,99963.88
2023-01-08T17:30:30.529Z,99960.59
2023-01-08T17:32:32.340Z,99961.59
2023-01-08T17:34:33.841Z,99963.53
2023-01-08T17:36:36.163Z,99970.59
2023-01-08T17:38:37.665Z,99970.50
2023-01-08T17:40:39.165Z,99959.16
2023-01-08T17:42:40.678Z,99964.44
2023-01-08T17:44:42.154Z,99966.34
2023-01-08T17:46:45.332Z,99965.69
2023-01-08T17:48:46.898Z,99964.94
2023-01-08T17:50:48.338Z,99958.88
2023-01-08T17:52:49.875Z,99962.38
2023-01-08T17:54:52.590Z,99963.22
2023-01-08T17:56:54.068Z,99958.00
2023-01-08T17:58:55.587Z,99959.81
2023-01-08T18:00:57.107Z,99957.25
2023-01-08T18:02:58.587Z,99964.34
2023-01-08T18:05:00.105Z,99964.50
2023-01-08T18:07:01.618Z,99967.16
2023-01-08T18:09:04.215Z,99971.56
2023-01-08T18:11:07.480Z,99967.25
2023-01-08T18:13:08.961Z,99970.84
2023-01-08T18:15:10.900Z,99966.59
2023-01-08T18:17:12.363Z,99962.34
2023-01-08T18:19:14.292Z,99964.19
2023-01-08T18:21:15.880Z,99961.66
2023-01-08T18:23:18.227Z,99966.19
2023-01-08T18:25:19.992Z,99960.97
2023-01-08T18:27:21.440Z,99962.78
2023-01-08T18:29:22.908Z,99951.50
2023-01-08T18:31:24.468Z,99948.97
2023-01-08T18:33:27.170Z,99950.78
2023-01-08T18:35:28.653Z,99951.66
2023-01-08T18:37:32.603Z,99950.88
2023-01-08T18:39:34.178Z,99953.59
2023-01-08T18:41:58.796Z,99950.19
2023-01-08T18:44:01.079Z,99948.53
2023-01-08T18:46:05.512Z,99939.94
2023-01-08T18:48:09.419Z,99945.25
2023-01-08T18:50:11.618Z,99937.50
2023-01-08T18:52:14.098Z,99941.09
2023-01-08T18:54:15.748Z,99942.06
2023-01-08T18:56:23.888Z,99949.16
2023-01-08T18:58:25.607Z,99939.63
2023-01-08T19:00:27.448Z,99938.00
2023-01-08T19:02:30.482Z,99946.84
2023-01-08T19:04:31.962Z,99947.88
2023-01-08T19:06:33.563Z,99937.47
2023-01-08T19:08:35.238Z,99937.56
2023-01-08T19:10:38.019Z,99941.19
2023-01-08T19:12:39.568Z,99928.16
2023-01-08T19:14:41.144Z,99938.72
2023-01-08T19:16:48.364Z,99934.47
2023-01-08T19:18:50.306Z,99935.47
2023-01-08T19:20:51.772Z,99933.81
2023-01-08T19:22:54.357Z,99928.69
2023-01-08T19:24:56.657Z,99922.66
2023-01-08T19:26:58.164Z,99918.38
2023-01-08T19:28:59.610Z,99916.69
2023-01-08T19:31:02.041Z,99909.84
2023-01-08T19:33:03.816Z,99908.13
2023-01-08T19:35:06.017Z,99910.78
2023-01-08T19:37:07.608Z,99895.16
2023-01-08T19:39:11.216Z,99901.31
2023-01-08T19:41:32.207Z,99895.28
2023-01-08T19:43:42.696Z,99893.63
2023-01-08T19:45:44.232Z,99891.09
2023-01-08T19:47:45.777Z,99885.03
2023-01-08T19:49:48.810Z,99882.47
2023-01-08T19:51:51.069Z,99886.84
2023-01-08T19:53:53.200Z,99878.19
2023-01-08T19:55:54.662Z,99879.09
2023-01-08T19:57:56.357Z,99878.25
2023-01-08T19:59:57.866Z,99874.81
2023-01-08T20:01:59.488Z,99867.88
2023-01-08T20:04:01.177Z,99871.31
2023-01-08T20:06:19.626Z,99866.03
2023-01-08T20:08:21.102Z,99862.44
2023-01-08T20:10:22.646Z,99866.69
2023-01-08T20:12:24.681Z,99864.88
2023-01-08T20:14:26.137Z,99865.69
2023-01-08T20:16:29.562Z,99858.59
2023-01-08T20:18:31.756Z,99860.28
2023-01-08T20:20:33.214Z,99857.59
2023-01-08T20:22:34.810Z,99858.44
2023-01-08T20:24:38.351Z,99855.78
2023-01-08T20:26:44.377Z,99856.63
2023-01-08T20:28:46.845Z,99854.84
2023-01-08T20:30:48.696Z,99854.84
2023-01-08T20:34:56.559Z,99848.75
2023-01-08T20:36:58.431Z,99842.66
2023-01-08T20:39:08.934Z,99840.94
2023-01-08T20:41:11.536Z,99843.56
2023-01-08T20:43:13.198Z,99835.75
2023-01-08T20:45:15.013Z,99835.75
2023-01-08T20:47:16.569Z,99825.34
2023-01-08T20:49:20.419Z,99831.47
2023-01-08T20:51:21.898Z,99829.78
2023-01-08T20:53:24.440Z,99826.34
2023-01-08T20:55:25.944Z,99822.03
2023-01-08T20:57:28.223Z,99824.69
2023-01-08T20:59:29.854Z,99825.63
2023-01-08T21:01:33.806Z,99817.84
2023-01-08T21:03:36.157Z,99822.25
2023-01-08T21:05:39.469Z,99823.16
2023-01-08T21:07:40.961Z,99814.50
2023-01-08T21:09:44.289Z,99804.97
2023-01-08T21:11:45.840Z,99814.59
2023-01-08T21:13:47.575Z,99803.31
2023-01-08T21:15:49.008Z,99801.59
2023-01-08T21:17:50.797Z,99798.16
2023-01-08T21:19:52.274Z,99799.09
2023-01-08T21:21:53.757Z,99799.13
2023-01-08T21:23:55.712Z,99796.53
2023-01-08T21:26:03.983Z,99793.06
2023-01-08T21:28:05.768Z,99791.38
2023-01-08T21:30:08.062Z,99793.13
2023-01-08T21:32:09.602Z,99786.22
2023-01-08T21:34:11.785Z,99785.38
2023-01-08T21:36:16.737Z,99779.31
2023-01-08T21:38:18.187Z,99771.53
2023-01-08T21:40:19.855Z,99771.56
2023-01-08T21:42:39.705Z,99763.81
2023-01-08T21:44:59.618Z,99769.13
2023-01-08T21:47:02.402Z,99764.81
2023-01-08T21:49:03.855Z,99751.84
2023-01-08T21:51:05.549Z,99751.84
2023-01-08T21:53:25.643Z,99750.19
2023-01-08T21:55:27.357Z,99750.22
2023-01-08T21:57:28.977Z,99748.53
2023-01-08T21:59:30.494Z,99738.97
2023-01-08T22:01:32.060Z,99736.44
2023-01-08T22:03:33.540Z,99732.97
2023-01-08T22:05:34.992Z,99729.53
2023-01-08T22:07:36.913Z,99731.28
2023-01-08T22:09:38.380Z,99722.59
2023-01-08T22:11:40.250Z,99724.38
2023-01-08T22:13:41.787Z,99713.13
2023-01-08T22:15:43.311Z,99714.91
2023-01-08T22:17:44.895Z,99717.53
2023-01-08T22:19:46.356Z,99720.19
2023-01-08T22:21:47.816Z,99715.00
2023-01-08T22:23:49.278Z,99713.31
2023-01-08T22:25:50.740Z,99715.94
2023-01-08T22:27:54.502Z,99713.38
2023-01-08T22:29:56.088Z,99708.19
2023-01-08T22:31:57.637Z,99702.97
2023-01-08T22:34:00.392Z,99703.91
2023-01-08T22:36:06.745Z,99706.53
2023-01-08T22:38:09.074Z,99703.97
2023-01-08T22:40:11.062Z,99697.03
2023-01-08T22:42:12.530Z,99693.59
2023-01-08T22:44:14.737Z,99691.88
2023-01-08T22:46:16.544Z,99689.28
2023-01-08T22:48:18.009Z,99680.59
2023-01-08T22:50:19.594Z,99675.41
2023-01-08T22:52:21.124Z,99677.19
2023-01-08T22:54:22.760Z,99678.94
2023-01-08T22:56:24.646Z,99678.97
2023-01-08T22:58:28.017Z,99673.75
2023-01-08T23:00:29.499Z,99667.66
2023-01-08T23:02:31.133Z,99657.22
2023-01-08T23:04:32.687Z,99653.75
2023-01-08T23:06:34.568Z,99652.88
2023-01-08T23:08:36.258Z,99645.94
2023-01-08T23:10:38.083Z,99641.56
2023-01-08T23:12:39.522Z,99637.25
2023-01-08T23:14:41.779Z,99638.09
2023-01-08T23:16:43.500Z,99636.38
2023-01-08T23:18:45.794Z,99636.38
2023-01-08T23:20:47.288Z,99633.81
2023-01-08T23:22:49.113Z,99641.66
2023-01-08T23:24:50.600Z,99632.13
2023-01-08T23:26:52.172Z,99628.66
2023-01-08T23:28:55.447Z,99628.66
2023-01-08T23:30:56.962Z,99633.88
2023-01-08T23:32:59.018Z,99624.28
2023-01-08T23:35:00.480Z,99628.63
2023-01-08T23:37:01.937Z,99628.59
2023-01-08T23:39:04.666Z,99625.94
2023-01-08T23:41:07.174Z,99622.41
2023-01-08T23:43:09.063Z,99614.56
2023-01-08T23:45:11.471Z,99609.31
2023-01-08T23:47:12.957Z,99609.31
2023-01-08T23:49:14.506Z,99599.75
2023-01-08T23:51:15.976Z,99598.88
2023-01-08T23:53:17.417Z,99591.91
2023-01-08T23:55:19.085Z,99582.31
2023-01-08T23:57:20.580Z,99584.03